Time;durP1;ratioP1;P1;durP2;ratioP2;P2;SDS_P1;SDS_P2;PMS_P1;PMS_P2;Temp;Humidity;BMP_temperature;BMP_pressure;BME280_temperature;BME280_humidity;BME280_pressure;Samples;Min_cycle;Max_cycle;Signal;HPM_P1;HPM_P2
2022/07/04 00:00:24;;;;;;;3.40;2.83;;;;;;;21.22;79.98;98283.66;4125650;28;20640;-89
2022/07/04 00:02:27;;;;;;;4.07;3.40;;;;;;;21.23;81.08;98281.81;4139208;28;20629;-89
2022/07/04 00:04:30;;;;;;;5.20;3.47;;;;;;;21.21;80.24;98275.88;4143043;28;20637;-89
2022/07/04 00:06:33;;;;;;;4.40;3.43;;;;;;;21.20;81.26;98282.16;4144271;28;20695;-89
2022/07/04 00:08:37;;;;;;;3.73;3.00;;;;;;;21.23;81.78;98282.69;4126216;28;20634;-88
2022/07/04 00:10:40;;;;;;;3.63;3.23;;;;;;;21.24;83.22;98286.97;4141439;28;20762;-90
2022/07/04 00:12:45;;;;;;;4.33;3.37;;;;;;;21.22;83.16;98294.28;4139993;28;21441;-90
2022/07/04 00:14:48;;;;;;;3.93;3.40;;;;;;;21.24;82.91;98283.50;4137923;28;21030;-89
2022/07/04 00:16:51;;;;;;;3.50;3.20;;;;;;;21.24;82.15;98283.50;4142096;28;20636;-89
2022/07/04 00:18:54;;;;;;;4.50;3.40;;;;;;;21.24;82.80;98272.88;4126445;28;20650;-89
2022/07/04 00:20:58;;;;;;;3.57;3.17;;;;;;;21.27;82.30;98274.22;4125769;28;20660;-88
2022/07/04 00:23:01;;;;;;;3.30;3.00;;;;;;;21.30;82.15;98281.84;4142324;28;20628;-89
2022/07/04 00:25:04;;;;;;;7.20;3.37;;;;;;;21.33;80.98;98278.88;4138847;28;20625;-89
2022/07/04 00:27:08;;;;;;;4.37;3.30;;;;;;;21.33;81.10;98273.56;4143208;28;20629;-89
2022/07/04 00:29:12;;;;;;;4.67;3.20;;;;;;;21.36;81.15;98275.88;4129205;28;20636;-90
2022/07/04 00:31:15;;;;;;;4.57;3.47;;;;;;;21.38;80.72;98284.50;4140170;28;20987;-89
2022/07/04 00:33:18;;;;;;;4.03;3.27;;;;;;;21.39;81.73;98267.59;4128132;28;20768;-89
2022/07/04 00:35:21;;;;;;;4.40;3.07;;;;;;;21.40;81.96;98258.59;4139792;28;20695;-89
2022/07/04 00:37:24;;;;;;;6.03;3.33;;;;;;;21.39;82.19;98272.88;4148856;28;20645;-90
2022/07/04 00:39:28;;;;;;;5.53;3.20;;;;;;;21.34;83.36;98267.22;4146097;28;20633;-90
2022/07/04 00:41:31;;;;;;;3.60;3.30;;;;;;;21.37;82.54;98274.84;4128277;28;20653;-89
2022/07/04 00:43:34;;;;;;;4.67;3.17;;;;;;;21.37;83.56;98285.47;4144635;28;20629;-89
2022/07/04 00:45:58;;;;;;;4.30;3.33;;;;;;;21.37;84.08;98285.47;4122903;28;20668;-90
2022/07/04 00:48:01;;;;;;;5.50;3.47;;;;;;;21.36;83.20;98272.38;4158067;28;20686;-89
2022/07/04 00:50:05;;;;;;;5.00;3.17;;;;;;;21.32;84.42;98265.75;4125050;28;20661;-89
2022/07/04 00:52:08;;;;;;;3.70;3.20;;;;;;;21.30;84.45;98265.06;4128927;28;20628;-89
2022/07/04 00:54:14;;;;;;;4.53;3.23;;;;;;;21.27;84.92;98274.22;4139454;28;21048;-89
2022/07/04 00:56:17;;;;;;;6.30;3.80;;;;;;;21.25;84.63;98280.69;4138602;28;20643;-90
2022/07/04 00:58:21;;;;;;;3.63;3.20;;;;;;;21.25;83.46;98277.19;4138954;28;20628;-89
2022/07/04 01:00:25;;;;;;;9.93;3.33;;;;;;;21.22;83.69;98282.84;4136979;28;20718;-89
2022/07/04 01:02:29;;;;;;;7.60;3.50;;;;;;;21.21;82.90;98294.44;4137259;28;20629;-90
2022/07/04 01:04:32;;;;;;;4.30;3.60;;;;;;;21.17;82.28;98293.09;4131443;28;20685;-90
2022/07/04 01:06:36;;;;;;;4.03;3.20;;;;;;;21.17;82.17;98287.78;4117968;28;21421;-89
2022/07/04 01:08:41;;;;;;;4.10;3.50;;;;;;;21.14;82.26;98288.13;4153244;28;20651;-89
2022/07/04 01:10:44;;;;;;;3.80;3.40;;;;;;;21.14;84.51;98288.13;4143594;28;20624;-89
2022/07/04 01:12:47;;;;;;;6.90;3.60;;;;;;;21.10;83.00;98279.66;4143091;28;20651;-89
2022/07/04 01:14:50;;;;;;;3.70;3.33;;;;;;;21.08;84.49;98286.13;4157701;28;20732;-90
2022/07/04 01:16:53;;;;;;;3.53;3.23;;;;;;;21.06;85.38;98283.63;4127937;28;21091;-89
2022/07/04 01:18:58;;;;;;;3.87;3.30;;;;;;;21.05;85.26;98273.19;4126952;28;21232;-89
2022/07/04 01:21:02;;;;;;;3.90;3.50;;;;;;;21.02;84.43;98276.19;4141148;28;20753;-89
2022/07/04 01:23:05;;;;;;;5.17;3.67;;;;;;;20.98;84.69;98283.63;4125789;28;20629;-90
2022/07/04 01:25:09;;;;;;;3.97;3.57;;;;;;;20.95;83.83;98286.63;4142269;28;20621;-89
2022/07/04 01:27:13;;;;;;;3.63;3.33;;;;;;;20.94;85.14;98289.44;4133527;28;20644;-89
2022/07/04 01:29:17;;;;;;;4.60;3.70;;;;;;;20.93;84.87;98301.06;4129082;28;21318;-89
2022/07/04 01:31:20;;;;;;;4.33;3.50;;;;;;;20.92;84.08;98300.22;4145404;28;20639;-90
2022/07/04 01:33:23;;;;;;;5.47;4.10;;;;;;;20.91;83.93;98290.59;4126529;28;20701;-89
2022/07/04 01:35:27;;;;;;;4.77;3.77;;;;;;;20.92;85.78;98291.44;4127258;28;20655;-90
2022/07/04 01:37:31;;;;;;;3.87;3.57;;;;;;;20.92;84.04;98288.78;4126798;28;20985;-89
2022/07/04 01:39:34;;;;;;;4.10;3.70;;;;;;;20.91;84.26;98282.66;4137466;28;20669;-90
2022/07/04 01:41:37;;;;;;;8.17;4.10;;;;;;;20.89;84.46;98281.16;4149075;28;21252;-89
2022/07/04 01:43:40;;;;;;;5.07;3.57;;;;;;;20.87;85.05;98286.63;4129619;28;21057;-89
2022/07/04 01:45:44;;;;;;;11.30;3.77;;;;;;;20.86;86.63;98289.44;4143264;28;20649;-89
2022/07/04 01:47:47;;;;;;;4.60;3.90;;;;;;;20.84;86.35;98291.44;4128030;28;21077;-89
2022/07/04 01:49:51;;;;;;;6.50;4.13;;;;;;;20.82;85.68;98296.03;4127961;28;20657;-89
2022/07/04 01:51:54;;;;;;;4.40;4.00;;;;;;;20.81;86.22;98302.34;4129118;28;20672;-89
2022/07/04 01:53:58;;;;;;;4.33;3.93;;;;;;;20.81;84.77;98299.72;4157092;28;20716;-90
2022/07/04 01:56:02;;;;;;;4.43;4.03;;;;;;;20.83;84.45;98305.66;4127198;28;20645;-88
2022/07/04 01:58:05;;;;;;;4.20;3.80;;;;;;;20.84;85.09;98310.00;4141908;28;20763;-89
2022/07/04 02:02:32;;;;;;;5.90;3.57;;;;;;;20.75;84.87;98303.00;4151471;28;20711;-89
2022/07/04 02:04:35;;;;;;;5.37;4.07;;;;;;;20.70;85.02;98323.03;4143746;28;20640;-89
2022/07/04 02:06:38;;;;;;;6.03;4.17;;;;;;;20.67;84.32;98321.53;4144324;28;21016;-89
2022/07/04 02:11:03;;;;;;;7.37;5.13;;;;;;;20.66;85.56;98324.31;4142149;28;20645;-89
2022/07/04 02:13:05;;;;;;;4.90;3.80;;;;;;;20.64;85.66;98326.28;4126549;28;20737;-89
2022/07/04 02:15:09;;;;;;;4.23;3.60;;;;;;;20.61;86.09;98321.31;4128628;28;20668;-89
2022/07/04 02:17:12;;;;;;;5.07;4.13;;;;;;;20.60;85.19;98330.28;4141187;28;20693;-89
2022/07/04 02:19:15;;;;;;;4.67;3.70;;;;;;;20.56;85.06;98329.75;4131007;28;20648;-89
2022/07/04 02:21:18;;;;;;;6.33;4.20;;;;;;;20.51;85.45;98328.59;4132984;28;20684;-89
2022/07/04 02:23:22;;;;;;;5.73;4.37;;;;;;;20.49;86.82;98334.03;4127558;28;20633;-89
2022/07/04 02:25:25;;;;;;;4.80;3.90;;;;;;;20.45;86.33;98329.22;4125166;28;20685;-89
2022/07/04 02:27:32;;;;;;;4.10;3.70;;;;;;;20.42;86.73;98342.78;4126019;28;21069;-89
2022/07/04 02:29:35;;;;;;;4.10;3.50;;;;;;;20.39;87.52;98337.81;4121956;28;20790;-89
2022/07/04 02:31:38;;;;;;;5.00;3.77;;;;;;;20.34;87.72;98343.59;4123301;28;20638;-89
2022/07/04 02:33:41;;;;;;;6.50;3.80;;;;;;;20.29;86.70;98353.00;4143387;28;21063;-89
2022/07/04 02:35:45;;;;;;;4.43;3.90;;;;;;;20.28;87.86;98339.91;4141654;28;20681;-89
2022/07/04 02:37:48;;;;;;;5.77;4.00;;;;;;;20.26;88.34;98344.53;4127283;28;21071;-89
2022/07/04 02:39:51;;;;;;;4.17;3.77;;;;;;;20.23;87.99;98347.50;4128637;28;21254;-89
2022/07/04 02:41:55;;;;;;;5.33;3.83;;;;;;;20.20;89.07;98343.34;4140492;28;21233;-89
2022/07/04 02:44:01;;;;;;;4.73;4.10;;;;;;;20.20;88.88;98347.81;4127903;28;20682;-89
2022/07/04 02:46:04;;;;;;;4.80;4.33;;;;;;;20.18;87.47;98350.63;4126232;28;21038;-89
2022/07/04 02:48:07;;;;;;;5.87;3.60;;;;;;;20.17;87.93;98351.59;4141138;28;20737;-89
2022/07/04 02:50:11;;;;;;;4.10;3.40;;;;;;;20.14;87.38;98359.84;4128658;28;20632;-89
2022/07/04 02:52:15;;;;;;;8.10;4.17;;;;;;;20.11;88.22;98362.00;4143733;28;20726;-89
2022/07/04 02:54:18;;;;;;;4.87;4.30;;;;;;;20.06;88.23;98361.66;4142824;28;20738;-89
2022/07/04 02:56:21;;;;;;;4.50;4.10;;;;;;;20.06;87.80;98361.66;4141977;28;20629;-89
2022/07/04 02:58:24;;;;;;;5.67;4.17;;;;;;;20.05;88.02;98359.97;4127353;28;21070;-89
2022/07/04 03:00:29;;;;;;;4.10;3.70;;;;;;;20.04;86.78;98369.75;4140255;28;21011;-89
2022/07/04 03:02:32;;;;;;;6.33;4.20;;;;;;;20.03;88.37;98373.38;4124356;28;20636;-89
2022/07/04 03:04:35;;;;;;;4.80;4.03;;;;;;;20.02;87.66;98373.53;4138804;28;21035;-89
2022/07/04 03:06:39;;;;;;;4.47;4.07;;;;;;;19.99;87.81;98376.50;4126642;28;20678;-89
2022/07/04 03:08:43;;;;;;;4.63;4.23;;;;;;;19.96;88.87;98374.16;4139885;28;20654;-89
2022/07/04 03:10:46;;;;;;;4.43;4.03;;;;;;;19.95;89.94;98377.78;4140047;28;20634;-89
2022/07/04 03:12:49;;;;;;;4.27;3.87;;;;;;;19.95;89.71;98378.63;4136038;28;20634;-89
2022/07/04 03:14:53;;;;;;;6.07;4.20;;;;;;;19.95;88.51;98380.44;4137863;28;20658;-89
2022/07/04 03:16:58;;;;;;;5.10;4.03;;;;;;;19.90;89.61;98383.53;4127147;28;20642;-89
2022/07/04 03:19:01;;;;;;;4.43;4.00;;;;;;;19.89;88.34;98381.91;4137824;28;20648;-89
2022/07/04 03:21:05;;;;;;;4.63;3.90;;;;;;;19.88;88.70;98382.88;4139910;28;20667;-89
2022/07/04 03:23:14;;;;;;;6.20;3.80;;;;;;;19.85;90.21;98384.97;4139846;28;20748;-89
2022/07/04 03:25:17;;;;;;;5.63;4.00;;;;;;;19.80;90.35;98389.91;4140802;28;20635;-89
2022/07/04 03:27:21;;;;;;;4.10;3.70;;;;;;;19.76;89.09;98385.91;4122895;28;21040;-89
2022/07/04 03:29:25;;;;;;;4.53;4.00;;;;;;;19.78;90.05;98391.03;4141603;28;20633;-90
2022/07/04 03:31:29;;;;;;;5.20;4.17;;;;;;;19.75;88.41;98389.50;4138652;28;20654;-89
2022/07/04 03:33:34;;;;;;;4.23;3.83;;;;;;;19.75;88.54;98386.06;4141622;28;20642;-90
2022/07/04 03:35:37;;;;;;;4.67;4.03;;;;;;;19.72;88.67;98389.81;4142568;28;20721;-89
2022/07/04 03:37:40;;;;;;;4.40;4.00;;;;;;;19.71;89.37;98395.28;4141342;28;21272;-89
2022/07/04 03:39:43;;;;;;;4.30;3.90;;;;;;;19.66;90.23;98387.78;4127037;28;20998;-89
2022/07/04 03:41:52;;;;;;;4.90;4.23;;;;;;;19.63;89.41;98390.75;4142214;28;20688;-89
2022/07/04 03:43:55;;;;;;;11.67;4.40;;;;;;;19.61;89.70;98392.72;4140151;28;20643;-89
2022/07/04 03:46:10;;;;;;;4.97;4.37;;;;;;;19.61;89.75;98395.38;4128385;28;20654;-89
2022/07/04 03:48:13;;;;;;;8.77;4.63;;;;;;;19.60;89.00;98400.81;4138523;28;21382;-89
2022/07/04 03:50:44;;;;;;;5.53;4.33;;;;;;;19.59;89.09;98402.63;4121400;28;20759;-88
2022/07/04 03:52:47;;;;;;;5.60;3.87;;;;;;;19.58;90.32;98400.97;4131058;28;21229;-89
2022/07/04 03:54:51;;;;;;;5.13;4.20;;;;;;;19.59;89.31;98407.94;4137355;28;20662;-89
2022/07/04 03:56:54;;;;;;;7.43;4.10;;;;;;;19.62;89.20;98407.63;4141407;28;21228;-89
2022/07/04 03:58:57;;;;;;;6.57;4.27;;;;;;;19.62;89.72;98415.56;4140259;28;20730;-89
2022/07/04 04:01:00;;;;;;;4.20;3.80;;;;;;;19.61;90.32;98413.06;4140788;28;20695;-89
2022/07/04 04:05:25;;;;;;;4.67;4.10;;;;;;;19.61;89.60;98413.91;4142820;28;20634;-89
2022/07/04 04:05:26;;;;;;;5.83;3.87;;;;;;;19.60;91.28;98416.69;4146253;28;20722;-89
2022/07/04 04:07:30;;;;;;;4.97;4.20;;;;;;;19.60;90.42;98414.88;4147859;28;20630;-89
2022/07/04 04:09:33;;;;;;;5.20;4.23;;;;;;;19.61;91.17;98413.06;4121489;28;20691;-89
2022/07/04 04:11:36;;;;;;;6.30;4.20;;;;;;;19.59;89.82;98415.88;4142976;28;21003;-89
2022/07/04 04:13:39;;;;;;;5.97;4.47;;;;;;;19.58;90.16;98419.50;4129613;28;20635;-89
2022/07/04 04:15:42;;;;;;;6.13;4.20;;;;;;;19.58;90.03;98421.31;4131432;28;20694;-89
2022/07/04 04:17:46;;;;;;;4.60;4.20;;;;;;;19.60;89.39;98412.22;4131391;28;21222;-89
2022/07/04 04:19:49;;;;;;;5.90;4.53;;;;;;;19.63;89.45;98422.50;4154342;28;20633;-89
2022/07/04 04:21:52;;;;;;;4.87;4.07;;;;;;;19.65;91.32;98419.72;4131760;28;21250;-89
2022/07/04 04:23:56;;;;;;;6.40;5.07;;;;;;;19.61;90.65;98423.66;4128160;28;20674;-89
2022/07/04 04:25:59;;;;;;;12.03;5.47;;;;;;;19.57;89.73;98423.13;4136605;28;20706;-88
2022/07/04 04:28:02;;;;;;;7.03;4.17;;;;;;;19.57;90.24;98409.88;4144560;28;20642;-89
2022/07/04 04:30:07;;;;;;;5.67;4.27;;;;;;;19.58;90.38;98413.38;4148985;28;21236;-89
2022/07/04 04:32:11;;;;;;;5.70;4.33;;;;;;;19.55;90.73;98408.38;4132435;28;20711;-89
2022/07/04 04:34:14;;;;;;;12.93;5.00;;;;;;;19.58;91.06;98406.25;4146692;28;20726;-89
2022/07/04 04:36:18;;;;;;;6.33;4.87;;;;;;;19.61;92.20;98415.72;4157410;28;21220;-89
2022/07/04 04:38:21;;;;;;;7.50;5.00;;;;;;;19.61;91.71;98427.13;4120521;28;21233;-89
2022/07/04 04:40:26;;;;;;;6.73;4.47;;;;;;;19.60;91.11;98433.41;4138194;28;20633;-89
2022/07/04 04:42:29;;;;;;;8.07;4.90;;;;;;;19.62;90.75;98434.09;4140327;28;21228;-89
2022/07/04 04:44:33;;;;;;;5.13;4.20;;;;;;;19.63;92.11;98441.03;4141452;28;20680;-89
2022/07/04 04:46:39;;;;;;;7.63;4.67;;;;;;;19.68;91.13;98449.38;4156274;28;20633;-89
2022/07/04 04:48:43;;;;;;;5.50;4.93;;;;;;;19.71;91.76;98451.72;4148618;28;20666;-89
2022/07/04 04:50:46;;;;;;;7.50;4.53;;;;;;;19.78;90.94;98465.16;4145737;28;20634;-89
2022/07/04 04:52:49;;;;;;;8.70;5.10;;;;;;;19.84;90.53;98463.59;4127877;28;20635;-89
2022/07/04 04:54:52;;;;;;;7.40;4.40;;;;;;;19.91;91.66;98464.66;4129654;28;20667;-89
2022/07/04 04:56:56;;;;;;;7.53;4.80;;;;;;;19.98;90.99;98471.00;4144500;28;20654;-89
2022/07/04 04:58:59;;;;;;;7.50;4.60;;;;;;;20.05;90.41;98476.53;4129255;28;20643;-88
2022/07/04 05:01:03;;;;;;;5.20;4.70;;;;;;;20.10;90.12;98490.97;4143213;28;20671;-89
2022/07/04 05:03:26;;;;;;;7.80;4.53;;;;;;;20.14;90.21;98486.19;4132177;28;20642;-89
2022/07/04 05:05:29;;;;;;;5.93;4.47;;;;;;;20.19;91.14;98484.75;4129512;28;20713;-89
2022/07/04 05:07:33;;;;;;;7.67;4.23;;;;;;;20.22;89.95;98491.56;4142849;28;20693;-89
2022/07/04 05:09:36;;;;;;;4.90;4.40;;;;;;;20.23;88.11;98490.56;4126898;28;20650;-89
2022/07/04 05:11:39;;;;;;;5.10;4.17;;;;;;;20.25;89.27;98494.75;4146165;28;20639;-89
2022/07/04 05:13:44;;;;;;;7.80;5.00;;;;;;;20.32;89.22;98494.94;4131408;28;20643;-89
2022/07/04 05:15:47;;;;;;;6.23;4.50;;;;;;;20.39;88.74;98494.19;4143501;28;20729;-89
2022/07/04 05:17:51;;;;;;;5.27;4.00;;;;;;;20.50;90.28;98499.22;4128804;28;20753;-90
2022/07/04 05:19:54;;;;;;;4.77;4.37;;;;;;;20.58;89.07;98507.22;4145167;28;20638;-88
2022/07/04 05:21:57;;;;;;;4.33;3.93;;;;;;;20.64;89.68;98507.44;4126740;28;20632;-90
2022/07/04 05:24:01;;;;;;;4.93;4.10;;;;;;;20.66;90.08;98505.44;4122388;28;20723;-90
2022/07/04 05:26:04;;;;;;;5.87;4.50;;;;;;;20.71;88.93;98503.19;4145042;28;20652;-90
2022/07/04 05:28:07;;;;;;;4.60;4.20;;;;;;;20.75;87.66;98509.84;4130053;28;21194;-90
2022/07/04 05:30:12;;;;;;;5.83;4.37;;;;;;;20.79;88.35;98502.41;4123922;28;21047;-90
2022/07/04 05:32:16;;;;;;;8.00;4.40;;;;;;;20.82;87.87;98505.56;4130415;28;20692;-91
2022/07/04 05:34:19;;;;;;;7.03;4.70;;;;;;;20.91;87.24;98509.91;4141187;28;21253;-91
2022/07/04 05:36:23;;;;;;;6.77;4.70;;;;;;;21.06;87.68;98505.69;4128003;28;20648;-90
2022/07/04 05:38:31;;;;;;;5.70;4.40;;;;;;;21.19;87.68;98501.59;4160518;28;20636;-90
2022/07/04 05:40:34;;;;;;;5.90;4.53;;;;;;;21.29;84.32;98503.13;4143987;28;20647;-91
2022/07/04 05:42:37;;;;;;;6.33;4.90;;;;;;;21.37;85.66;98508.47;4150036;28;20638;-91
2022/07/04 05:44:40;;;;;;;5.90;4.60;;;;;;;21.49;84.39;98512.50;4128325;28;20723;-90
2022/07/04 05:46:45;;;;;;;7.33;5.40;;;;;;;21.58;84.46;98510.72;4128479;28;20624;-90
2022/07/04 05:48:48;;;;;;;7.30;5.37;;;;;;;21.60;83.80;98498.09;4131128;28;20650;-92
2022/07/04 05:50:51;;;;;;;6.53;5.00;;;;;;;21.60;84.37;98508.72;4126908;28;20647;-92
2022/07/04 05:52:55;;;;;;;5.90;4.73;;;;;;;21.76;84.45;98506.94;4142758;28;20650;-92
2022/07/04 05:54:59;;;;;;;5.13;4.40;;;;;;;22.07;83.68;98507.94;4141711;28;20645;-91
2022/07/04 05:57:02;;;;;;;8.57;4.40;;;;;;;22.34;82.15;98516.44;4129649;28;20659;-92
2022/07/04 05:59:05;;;;;;;6.07;4.40;;;;;;;22.64;81.45;98503.28;4128068;28;24269;-90
2022/07/04 06:01:08;;;;;;;6.80;4.83;;;;;;;22.88;79.26;98508.53;4140926;28;21225;-89
2022/07/04 06:03:14;;;;;;;7.77;5.73;;;;;;;23.16;79.20;98515.16;4123734;28;20787;-91
2022/07/04 06:05:17;;;;;;;5.33;4.30;;;;;;;23.50;78.36;98514.66;4148345;28;20633;-89
2022/07/04 06:07:20;;;;;;;8.13;4.63;;;;;;;23.78;78.59;98524.66;4133492;28;20772;-90
2022/07/04 06:09:24;;;;;;;6.07;4.27;;;;;;;23.97;76.51;98518.06;4130286;28;21017;-90
2022/07/04 06:11:27;;;;;;;6.10;4.27;;;;;;;24.10;75.42;98513.81;4144173;28;20731;-90
2022/07/04 06:13:33;;;;;;;6.40;4.50;;;;;;;24.27;74.47;98521.50;4141360;28;20644;-90
2022/07/04 06:15:36;;;;;;;10.23;4.20;;;;;;;24.41;75.31;98523.41;4141924;28;20679;-89
2022/07/04 06:17:39;;;;;;;4.53;3.80;;;;;;;24.44;75.14;98517.69;4160563;28;21018;-89
2022/07/04 06:19:44;;;;;;;6.40;4.17;;;;;;;24.39;73.67;98517.41;4138716;28;20633;-90
2022/07/04 06:21:48;;;;;;;6.60;4.23;;;;;;;24.30;73.19;98506.97;4129689;28;20655;-89
2022/07/04 06:23:51;;;;;;;7.93;4.50;;;;;;;24.21;72.94;98510.72;4125877;28;21240;-92
2022/07/04 06:25:54;;;;;;;30.30;27.03;;;;;;;24.17;74.56;98512.88;4142250;28;21209;-92
2022/07/04 06:27:57;;;;;;;15.77;14.23;;;;;;;24.22;72.90;98512.34;4127207;28;20646;-92
2022/07/04 06:30:01;;;;;;;5.00;3.70;;;;;;;24.18;73.41;98509.22;4124374;28;20662;-92
2022/07/04 06:32:05;;;;;;;5.90;4.03;;;;;;;24.16;73.46;98497.91;4145532;28;20670;-92
2022/07/04 06:36:32;;;;;;;8.27;4.50;;;;;;;24.36;72.65;98503.63;4103661;28;20661;-92
2022/07/04 06:38:36;;;;;;;6.30;3.87;;;;;;;24.30;73.19;98510.47;4143175;28;20653;-93
2022/07/04 06:40:40;;;;;;;4.53;3.70;;;;;;;24.31;73.01;98505.94;4127066;28;20632;-92
2022/07/04 06:42:43;;;;;;;7.63;4.00;;;;;;;24.32;72.60;98503.13;4126061;28;20622;-92
2022/07/04 06:44:46;;;;;;;7.50;4.47;;;;;;;24.42;73.24;98501.06;4136068;28;20632;-93
2022/07/04 06:46:50;;;;;;;3.90;3.60;;;;;;;24.43;71.63;98501.88;4129326;28;20642;-92
2022/07/04 06:48:54;;;;;;;7.20;3.90;;;;;;;24.44;70.85;98501.69;4130138;28;20634;-92
2022/07/04 06:50:57;;;;;;;4.73;3.60;;;;;;;24.49;72.29;98502.00;4130634;28;20636;-92
2022/07/04 06:53:03;;;;;;;5.83;3.40;;;;;;;24.63;70.67;98495.84;4145920;28;20656;-92
2022/07/04 06:55:07;;;;;;;4.13;3.73;;;;;;;25.01;72.56;98505.50;4125421;28;20643;-92
2022/07/04 06:57:12;;;;;;;7.40;3.73;;;;;;;25.18;70.48;98513.97;4139244;28;21246;-92
2022/07/04 06:59:33;;;;;;;4.67;3.77;;;;;;;25.06;67.92;98508.44;4121618;28;20641;-91
2022/07/04 07:01:36;;;;;;;4.93;4.10;;;;;;;24.97;69.26;98512.16;4123103;28;20637;-91
2022/07/04 07:03:40;;;;;;;4.20;3.80;;;;;;;24.95;70.69;98504.34;4134042;28;20648;-90
2022/07/04 07:05:43;;;;;;;7.13;3.80;;;;;;;24.99;69.51;98507.50;4127556;28;20690;-90
2022/07/04 07:08:05;;;;;;;4.27;3.80;;;;;;;24.98;69.02;98497.81;4127017;28;20666;-90
2022/07/04 07:10:11;;;;;;;4.07;3.30;;;;;;;24.87;70.27;98496.44;4129306;28;21023;-90
2022/07/04 07:12:14;;;;;;;4.10;3.70;;;;;;;24.88;69.65;98489.25;4127753;28;20640;-90
2022/07/04 07:14:17;;;;;;;5.67;3.70;;;;;;;24.96;68.46;98494.47;4124723;28;20656;-89
2022/07/04 07:16:22;;;;;;;4.43;4.03;;;;;;;24.93;70.36;98497.53;4124805;28;20656;-90
2022/07/04 07:18:25;;;;;;;4.63;3.70;;;;;;;24.83;69.68;98496.97;4122315;28;20670;-90
2022/07/04 07:20:28;;;;;;;3.80;3.40;;;;;;;24.75;69.40;98494.41;4121659;28;20645;-90
2022/07/04 07:22:31;;;;;;;7.87;4.23;;;;;;;24.71;70.33;98488.56;4141095;28;20623;-90
2022/07/04 07:24:36;;;;;;;5.40;3.83;;;;;;;24.75;69.98;98489.88;4126708;28;21028;-90
2022/07/04 07:26:39;;;;;;;6.00;3.43;;;;;;;24.90;70.09;98487.22;4116185;28;20640;-90
2022/07/04 07:28:42;;;;;;;5.40;3.53;;;;;;;24.95;70.74;98490.16;4124298;28;20642;-90
2022/07/04 07:30:45;;;;;;;3.90;3.50;;;;;;;24.92;69.59;98493.22;4125887;28;20634;-90
2022/07/04 07:32:48;;;;;;;6.57;3.60;;;;;;;24.91;69.63;98494.22;4129127;28;20684;-90
2022/07/04 07:34:51;;;;;;;4.90;3.97;;;;;;;24.93;71.16;98487.69;4127467;28;20732;-90
2022/07/04 07:36:55;;;;;;;8.97;4.03;;;;;;;24.94;69.72;98481.34;4126527;28;20971;-90
2022/07/04 07:38:58;;;;;;;8.17;7.37;;;;;;;24.91;70.17;98486.19;4123666;28;20629;-90
2022/07/04 07:41:02;;;;;;;5.43;4.07;;;;;;;24.94;70.46;98481.34;4142622;28;20633;-90
2022/07/04 07:43:06;;;;;;;4.40;3.53;;;;;;;24.95;69.07;98474.16;4125017;28;20621;-90
2022/07/04 07:45:09;;;;;;;5.50;3.60;;;;;;;24.92;70.31;98475.34;4120191;28;20647;-91
2022/07/04 07:47:13;;;;;;;4.80;3.83;;;;;;;24.87;70.10;98475.06;4140383;28;20640;-90
2022/07/04 07:49:16;;;;;;;4.57;3.97;;;;;;;24.74;67.35;98471.38;4125825;28;20630;-90
2022/07/04 07:51:19;;;;;;;4.60;4.03;;;;;;;24.66;69.04;98479.47;4127180;28;21095;-90
2022/07/04 07:53:23;;;;;;;7.93;4.17;;;;;;;24.65;69.60;98472.47;4138645;28;21223;-90
2022/07/04 07:55:26;;;;;;;6.60;4.00;;;;;;;24.64;71.23;98476.16;4138453;28;20632;-90
2022/07/04 07:57:31;;;;;;;5.10;3.80;;;;;;;24.60;68.64;98472.19;4122087;28;20752;-90
2022/07/04 07:59:34;;;;;;;4.20;3.80;;;;;;;24.59;69.53;98469.72;4138951;28;20638;-89
2022/07/04 08:01:37;;;;;;;4.33;3.43;;;;;;;24.56;70.64;98462.91;4137771;28;20677;-90
2022/07/04 08:06:01;;;;;;;5.60;4.23;;;;;;;24.63;72.92;98466.50;4119982;28;21372;-90
2022/07/04 08:08:06;;;;;;;4.97;4.40;;;;;;;24.67;72.21;98470.44;4128559;28;20661;-90
2022/07/04 08:10:10;;;;;;;6.10;4.00;;;;;;;24.72;71.65;98462.75;4142222;28;20645;-90
2022/07/04 08:12:13;;;;;;;6.70;5.70;;;;;;;24.76;71.79;98467.53;4123026;28;20642;-90
2022/07/04 08:14:18;;;;;;;6.57;5.27;;;;;;;24.72;69.95;98452.88;4140961;28;20684;-90
2022/07/04 08:16:21;;;;;;;5.37;4.20;;;;;;;24.69;68.93;98455.91;4144931;28;20649;-90
2022/07/04 08:18:44;;;;;;;12.93;7.93;;;;;;;24.74;72.25;98466.03;4131369;28;20663;-89
2022/07/04 08:20:47;;;;;;;5.10;4.20;;;;;;;24.75;70.05;98451.69;4147303;28;20732;-90
2022/07/04 08:23:03;;;;;;;6.37;3.60;;;;;;;24.73;68.72;98459.88;4140005;28;20623;-89
2022/07/04 08:25:06;;;;;;;4.30;3.50;;;;;;;24.69;68.92;98453.25;4117595;28;21199;-89
2022/07/04 08:27:09;;;;;;;4.50;4.10;;;;;;;24.72;69.97;98454.72;4113434;28;20653;-90
2022/07/04 08:29:13;;;;;;;5.43;4.13;;;;;;;24.75;70.30;98451.69;4135594;28;20631;-89
2022/07/04 08:31:20;;;;;;;4.90;4.40;;;;;;;24.77;70.16;98449.66;4114784;28;21483;-90
2022/07/04 08:33:44;;;;;;;7.00;4.20;;;;;;;24.73;69.34;98443.88;4122567;28;20653;-89
2022/07/04 08:35:47;;;;;;;4.90;4.50;;;;;;;24.69;70.05;98441.75;4142491;28;20652;-90
2022/07/04 08:37:53;;;;;;;4.50;4.10;;;;;;;24.70;70.39;98448.72;4127941;28;20646;-90
2022/07/04 08:39:56;;;;;;;6.73;4.53;;;;;;;24.73;70.97;98438.53;4137146;28;20645;-90
2022/07/04 08:42:03;;;;;;;7.50;4.13;;;;;;;24.70;69.28;98438.06;4137823;28;20655;-89
2022/07/04 08:44:08;;;;;;;7.00;4.30;;;;;;;24.69;68.54;98431.91;4134654;28;21010;-88
2022/07/04 08:46:11;;;;;;;6.23;4.43;;;;;;;24.81;69.51;98432.28;4158400;28;21586;-89
2022/07/04 08:48:26;;;;;;;5.00;4.50;;;;;;;24.79;68.00;98434.28;4144351;28;20637;-90
2022/07/04 08:50:31;;;;;;;4.70;4.30;;;;;;;24.87;70.97;98442.22;4126001;28;21243;-88
2022/07/04 08:52:37;;;;;;;10.40;4.53;;;;;;;24.96;68.89;98439.25;4138865;28;20632;-90
2022/07/04 08:59:22;;;;;;;9.97;5.00;;;;;;;25.05;71.22;98442.66;4123987;28;20669;-90
2022/07/04 09:01:26;;;;;;;4.40;4.00;;;;;;;25.09;71.72;98446.63;4112299;28;20649;-89
2022/07/04 09:03:31;;;;;;;6.90;5.00;;;;;;;25.10;71.02;98448.31;4119621;28;22476;-90
2022/07/04 09:05:34;;;;;;;6.20;4.67;;;;;;;25.22;71.09;98456.47;4137225;28;20699;-89
2022/07/04 09:07:38;;;;;;;7.40;4.00;;;;;;;25.24;68.88;98450.94;4136141;28;20687;-90
2022/07/04 09:09:41;;;;;;;4.53;4.03;;;;;;;25.23;67.66;98452.78;4124048;28;20684;-89
2022/07/04 09:11:51;;;;;;;6.60;4.60;;;;;;;25.30;68.57;98459.06;4138929;28;20631;-89
2022/07/04 09:13:55;;;;;;;4.30;3.90;;;;;;;25.37;69.13;98459.94;4137987;28;20645;-90
2022/07/04 09:15:59;;;;;;;8.90;4.30;;;;;;;25.46;69.03;98461.50;4125790;28;20645;-90
2022/07/04 09:18:03;;;;;;;4.53;4.10;;;;;;;25.44;67.89;98460.84;4125544;28;22372;-90
2022/07/04 09:20:14;;;;;;;5.17;4.10;;;;;;;25.44;69.00;98466.19;4139388;28;21034;-90
2022/07/04 09:22:18;;;;;;;4.63;4.17;;;;;;;25.45;69.46;98467.84;4121252;28;20646;-90
2022/07/04 09:24:42;;;;;;;5.53;4.30;;;;;;;25.56;68.90;98471.88;4143526;28;20684;-90
2022/07/04 09:26:45;;;;;;;4.93;4.10;;;;;;;25.63;68.15;98468.25;4115619;28;20625;-90
2022/07/04 09:28:53;;;;;;;6.90;4.30;;;;;;;25.70;67.21;98462.00;4148987;28;20629;-89
2022/07/04 09:30:58;;;;;;;4.70;4.20;;;;;;;25.98;68.17;98476.28;4142326;28;22561;-90
2022/07/04 09:33:02;;;;;;;8.50;4.53;;;;;;;26.07;69.83;98479.66;4138774;28;20641;-88
2022/07/04 09:35:07;;;;;;;5.50;4.67;;;;;;;26.03;68.98;98475.72;4140319;28;20629;-88
2022/07/04 09:37:11;;;;;;;6.07;4.13;;;;;;;25.91;68.01;98471.88;4142347;28;20655;-88
2022/07/04 09:39:18;;;;;;;5.80;4.30;;;;;;;25.82;69.02;98475.69;4126833;28;20777;-88
2022/07/04 09:41:29;;;;;;;4.50;4.10;;;;;;;25.85;68.63;98473.47;4122227;28;20649;-87
2022/07/04 09:43:32;;;;;;;4.53;4.13;;;;;;;26.05;67.57;98479.00;4126906;28;21041;-88
2022/07/04 09:45:36;;;;;;;5.93;4.57;;;;;;;26.40;68.21;98489.66;4140398;28;20633;-87
2022/07/04 09:47:40;;;;;;;4.40;4.00;;;;;;;26.48;65.75;98484.19;4122422;28;21105;-88
2022/07/04 09:49:58;;;;;;;5.27;4.40;;;;;;;26.42;67.12;98483.09;4122515;28;21222;-88
2022/07/04 09:52:02;;;;;;;4.50;4.10;;;;;;;26.52;65.61;98486.25;4125538;28;20707;-88
2022/07/04 09:54:16;;;;;;;6.73;4.73;;;;;;;26.66;65.75;98490.69;4134736;28;20645;-88
2022/07/04 09:56:20;;;;;;;7.87;4.93;;;;;;;26.69;63.64;98495.66;4122020;28;20627;-88
2022/07/04 09:58:23;;;;;;;5.73;4.60;;;;;;;26.66;64.39;98496.88;4123515;28;20649;-88
2022/07/04 10:00:29;;;;;;;5.80;4.70;;;;;;;26.81;65.88;98502.13;4145164;28;20630;-88